Time;durP1;ratioP1;P1;durP2;ratioP2;P2;SDS_P1;SDS_P2;PMS_P1;PMS_P2;Temp;Humidity;BMP_temperature;BMP_pressure;BME280_temperature;BME280_humidity;BME280_pressure;Samples;Min_cycle;Max_cycle;Signal;HPM_P1;HPM_P2
2022/05/17 00:00:44;;;;;;;1999.90;999.90;;;16.80;99.90;;;;;;4924405;29;20110;-75
2022/05/17 00:03:10;;;;;;;1999.90;999.90;;;16.80;99.90;;;;;;4923406;29;20036;-75
2022/05/17 00:05:36;;;;;;;1999.90;999.90;;;16.80;99.90;;;;;;4924150;29;20051;-75
2022/05/17 00:08:02;;;;;;;1999.90;999.90;;;16.90;99.90;;;;;;4924072;29;20024;-75
2022/05/17 00:10:28;;;;;;;1999.90;999.90;;;16.90;99.90;;;;;;4918181;29;20024;-79
2022/05/17 00:12:55;;;;;;;1999.90;999.90;;;16.90;99.90;;;;;;4918984;29;20072;-78
2022/05/17 00:15:21;;;;;;;1999.90;999.90;;;16.90;99.90;;;;;;4919322;29;20024;-78
2022/05/17 00:17:49;;;;;;;1999.90;999.90;;;16.90;99.90;;;;;;4920481;29;20039;-79
2022/05/17 00:20:16;;;;;;;1999.90;999.90;;;16.90;99.90;;;;;;4912787;29;20016;-75
2022/05/17 00:22:43;;;;;;;1999.90;999.90;;;16.90;99.90;;;;;;4923364;29;20538;-78
2022/05/17 00:25:21;;;;;;;1999.90;999.90;;;16.80;99.90;;;;;;4918157;29;20039;-75
2022/05/17 00:27:47;;;;;;;1999.90;999.90;;;16.80;99.90;;;;;;4918218;29;20124;-76
2022/05/17 00:30:14;;;;;;;1999.90;999.90;;;16.90;99.90;;;;;;4917353;29;20032;-78
2022/05/17 00:32:39;;;;;;;1999.90;999.90;;;16.90;99.90;;;;;;4927647;29;20032;-76
2022/05/17 00:35:05;;;;;;;1999.90;999.90;;;16.90;99.90;;;;;;4917824;29;20107;-79
2022/05/17 00:37:31;;;;;;;1999.90;999.90;;;16.80;99.90;;;;;;4918753;29;20556;-75
2022/05/17 00:39:57;;;;;;;1999.90;999.90;;;16.80;99.90;;;;;;4916541;29;20108;-75
2022/05/17 00:42:23;;;;;;;1999.90;999.90;;;16.70;99.90;;;;;;4912797;29;20040;-75
2022/05/17 00:44:49;;;;;;;1999.90;999.90;;;16.70;99.90;;;;;;4924442;29;20031;-78
2022/05/17 00:47:36;;;;;;;1999.90;999.90;;;16.70;99.90;;;;;;4922806;29;20502;-75
2022/05/17 00:50:34;;;;;;;1999.90;999.90;;;16.70;99.90;;;;;;4913296;29;20484;-75
2022/05/17 00:53:22;;;;;;;1999.90;999.90;;;16.60;99.90;;;;;;4908576;29;20039;-78
2022/05/17 00:55:55;;;;;;;1999.90;999.90;;;16.60;99.90;;;;;;4918269;29;20044;-76
2022/05/17 00:58:43;;;;;;;1999.90;999.90;;;16.50;99.90;;;;;;4926616;29;20079;-78
2022/05/17 01:01:15;;;;;;;1999.90;999.90;;;16.50;99.90;;;;;;4908786;29;20031;-78
2022/05/17 01:04:00;;;;;;;1999.90;999.90;;;16.50;99.90;;;;;;4928739;29;20052;-75
2022/05/17 01:06:39;;;;;;;1999.90;999.90;;;16.50;99.90;;;;;;4917197;29;20488;-75
2022/05/17 01:09:05;;;;;;;1999.90;999.90;;;16.40;99.90;;;;;;4917365;29;20027;-75
2022/05/17 01:11:31;;;;;;;1999.90;999.90;;;16.40;99.90;;;;;;4918185;29;20407;-75
2022/05/17 01:16:42;;;;;;;1999.90;999.90;;;16.40;99.90;;;;;;4917852;29;20459;-79
2022/05/17 01:19:09;;;;;;;1999.90;999.90;;;16.40;99.90;;;;;;4915875;29;20024;-78
2022/05/17 01:21:36;;;;;;;1999.90;999.90;;;16.30;99.90;;;;;;4912307;29;20404;-75
2022/05/17 01:24:02;;;;;;;1999.90;999.90;;;16.30;99.90;;;;;;4908629;29;20420;-75
2022/05/17 01:26:31;;;;;;;1999.90;999.90;;;16.30;99.90;;;;;;4917607;29;20032;-75
2022/05/17 01:28:57;;;;;;;1999.90;999.90;;;16.30;99.90;;;;;;4916768;29;20487;-78
2022/05/17 01:31:23;;;;;;;1999.90;999.90;;;16.30;99.90;;;;;;4916777;29;20028;-75
2022/05/17 01:33:49;;;;;;;1999.90;999.90;;;16.30;99.90;;;;;;4918254;29;20028;-78
2022/05/17 01:36:16;;;;;;;1999.90;999.90;;;16.30;99.90;;;;;;4917745;29;20403;-75
2022/05/17 01:38:50;;;;;;;1999.90;999.90;;;16.30;99.90;;;;;;4918789;29;20020;-75
2022/05/17 01:41:16;;;;;;;1999.90;999.90;;;16.20;99.90;;;;;;4916320;29;20032;-75
2022/05/17 01:43:44;;;;;;;1999.90;999.90;;;16.30;99.90;;;;;;4917422;29;20076;-75
2022/05/17 01:46:10;;;;;;;1999.90;999.90;;;16.30;99.90;;;;;;4914901;29;20036;-75
2022/05/17 01:48:39;;;;;;;1999.90;999.90;;;16.30;99.90;;;;;;4927226;29;20562;-75
2022/05/17 01:51:06;;;;;;;1999.90;999.90;;;16.20;99.90;;;;;;4918192;29;20069;-76
2022/05/17 01:53:33;;;;;;;1999.90;999.90;;;16.20;99.90;;;;;;4916802;29;20504;-78
2022/05/17 01:56:01;;;;;;;1999.90;999.90;;;16.20;99.90;;;;;;4915718;29;20040;-78
2022/05/17 01:58:26;;;;;;;1999.90;999.90;;;16.20;99.90;;;;;;4916274;29;20031;-75
2022/05/17 02:00:52;;;;;;;1999.90;999.90;;;16.10;99.90;;;;;;4912725;29;20040;-78
2022/05/17 02:03:18;;;;;;;1999.90;999.90;;;16.10;99.90;;;;;;4913555;29;20020;-79
2022/05/17 02:05:43;;;;;;;1999.90;999.90;;;16.10;99.90;;;;;;4905203;29;20028;-76
2022/05/17 02:08:09;;;;;;;1999.90;999.90;;;16.00;99.90;;;;;;4916820;29;20063;-78
2022/05/17 02:10:35;;;;;;;1999.90;999.90;;;16.00;99.90;;;;;;4916582;29;20129;-75
2022/05/17 02:13:01;;;;;;;1999.90;999.90;;;16.00;99.90;;;;;;4915065;29;20539;-78
2022/05/17 02:15:26;;;;;;;1999.90;999.90;;;16.00;99.90;;;;;;4916544;29;20036;-76
2022/05/17 02:17:52;;;;;;;1999.90;999.90;;;16.00;99.90;;;;;;4915067;29;20032;-75
2022/05/17 02:20:19;;;;;;;1999.90;999.90;;;15.90;99.90;;;;;;4915215;29;20125;-75
2022/05/17 02:22:45;;;;;;;1999.90;999.90;;;15.90;99.90;;;;;;4916751;29;20020;-75
2022/05/17 02:25:11;;;;;;;1999.90;999.90;;;15.80;99.90;;;;;;4916727;29;20476;-78
2022/05/17 02:27:38;;;;;;;1999.90;999.90;;;15.80;99.90;;;;;;4917579;29;20036;-75
2022/05/17 02:30:06;;;;;;;1999.90;999.90;;;15.80;99.90;;;;;;4923042;29;20039;-75
2022/05/17 02:32:32;;;;;;;1999.90;999.90;;;15.80;99.90;;;;;;4920620;29;20024;-75
2022/05/17 02:34:57;;;;;;;1999.90;999.90;;;15.70;99.90;;;;;;4916366;29;20070;-75
2022/05/17 02:37:23;;;;;;;1999.90;999.90;;;15.70;99.90;;;;;;4916513;29;20076;-81
2022/05/17 02:39:49;;;;;;;1999.90;999.90;;;15.70;99.90;;;;;;4927534;29;20373;-77
2022/05/17 02:42:14;;;;;;;1999.90;999.90;;;15.70;99.90;;;;;;4916287;29;20024;-81
2022/05/17 02:44:40;;;;;;;1999.90;999.90;;;15.60;99.90;;;;;;4930657;29;20031;-77
2022/05/17 02:47:11;;;;;;;1999.90;999.90;;;15.60;99.90;;;;;;4915407;29;20078;-80
2022/05/17 02:49:40;;;;;;;1999.90;999.90;;;15.60;99.90;;;;;;4923643;29;20066;-77
2022/05/17 02:52:07;;;;;;;1999.90;999.90;;;15.60;99.90;;;;;;4919593;29;20399;-75
2022/05/17 02:54:33;;;;;;;1999.90;999.90;;;15.60;99.90;;;;;;4916101;29;20044;-75
2022/05/17 02:56:59;;;;;;;1999.90;999.90;;;15.60;99.90;;;;;;4917938;29;20028;-75
2022/05/17 02:59:25;;;;;;;1999.90;999.90;;;15.60;99.90;;;;;;4927728;29;20039;-75
2022/05/17 03:01:51;;;;;;;1999.90;999.90;;;15.60;99.90;;;;;;4922855;29;20032;-78
2022/05/17 03:04:17;;;;;;;1999.90;999.90;;;15.50;99.90;;;;;;4919749;29;20039;-75
2022/05/17 03:06:44;;;;;;;1999.90;999.90;;;15.50;99.90;;;;;;4919157;29;20106;-75
2022/05/17 03:09:11;;;;;;;1999.90;999.90;;;15.50;99.90;;;;;;4919781;29;20157;-77
2022/05/17 03:11:41;;;;;;;1999.90;999.90;;;15.50;99.90;;;;;;4928339;29;20032;-77
2022/05/17 03:14:08;;;;;;;1999.90;999.90;;;15.50;99.90;;;;;;4918546;29;20032;-77
2022/05/17 03:16:33;;;;;;;1999.90;999.90;;;15.50;99.90;;;;;;4918421;29;20028;-77
2022/05/17 03:19:00;;;;;;;1999.90;999.90;;;15.50;99.90;;;;;;4918436;29;20122;-77
2022/05/17 03:21:26;;;;;;;1999.90;999.90;;;15.50;99.90;;;;;;4919846;29;20035;-80
2022/05/17 03:23:53;;;;;;;1999.90;999.90;;;15.50;99.90;;;;;;4914199;29;20040;-80
2022/05/17 03:26:19;;;;;;;1999.90;999.90;;;15.50;99.90;;;;;;4919523;29;20475;-77
2022/05/17 03:28:45;;;;;;;1999.90;999.90;;;15.50;99.90;;;;;;4919645;29;20032;-77
2022/05/17 03:31:12;;;;;;;1999.90;999.90;;;15.40;99.90;;;;;;4929579;29;20035;-80
2022/05/17 03:33:38;;;;;;;1999.90;999.90;;;15.40;99.90;;;;;;4919528;29;20032;-77
2022/05/17 03:36:06;;;;;;;1999.90;999.90;;;15.40;99.90;;;;;;4921172;29;20402;-81
2022/05/17 03:38:36;;;;;;;1999.90;999.90;;;15.40;99.90;;;;;;4921821;29;20460;-81
2022/05/17 03:41:03;;;;;;;1999.90;999.90;;;15.40;99.90;;;;;;4920993;29;20104;-77
2022/05/17 03:43:29;;;;;;;1999.90;999.90;;;15.40;99.90;;;;;;4920549;29;20059;-77
2022/05/17 03:45:55;;;;;;;1999.90;999.90;;;15.40;99.90;;;;;;4916887;29;20084;-77
2022/05/17 03:48:22;;;;;;;1999.90;999.90;;;15.50;99.90;;;;;;4919540;29;20459;-81
2022/05/17 03:50:48;;;;;;;1999.90;999.90;;;15.40;99.90;;;;;;4918391;29;20487;-77
2022/05/17 03:53:14;;;;;;;1999.90;999.90;;;15.40;99.90;;;;;;4929223;29;20071;-77
2022/05/17 03:55:40;;;;;;;1999.90;999.90;;;15.40;99.90;;;;;;4914489;29;20072;-77
2022/05/17 03:58:09;;;;;;;1999.90;999.90;;;15.40;99.90;;;;;;4920951;29;20095;-77
2022/05/17 04:00:35;;;;;;;1999.90;999.90;;;15.40;99.90;;;;;;4933973;29;20106;-77
2022/05/17 04:03:01;;;;;;;1999.90;999.90;;;15.40;99.90;;;;;;4923942;29;20111;-77
2022/05/17 04:05:28;;;;;;;1999.90;999.90;;;15.40;99.90;;;;;;4933920;29;20035;-77
2022/05/17 04:07:53;;;;;;;1999.90;999.90;;;15.40;99.90;;;;;;4923642;29;20028;-80
2022/05/17 04:10:19;;;;;;;1999.90;999.90;;;15.40;99.90;;;;;;4919916;29;20025;-81
2022/05/17 04:12:45;;;;;;;1999.90;999.90;;;15.40;99.90;;;;;;4916954;29;20088;-77
2022/05/17 04:15:22;;;;;;;1999.90;999.90;;;15.40;99.90;;;;;;4918944;29;20036;-77
2022/05/17 04:17:50;;;;;;;1999.90;999.90;;;15.40;99.90;;;;;;4919261;29;20152;-81
2022/05/17 04:20:17;;;;;;;1999.90;999.90;;;15.40;99.90;;;;;;4923524;29;20062;-77
2022/05/17 04:22:48;;;;;;;1999.90;999.90;;;15.40;99.90;;;;;;4922795;29;20032;-77
2022/05/17 04:25:15;;;;;;;1999.90;999.90;;;15.30;99.90;;;;;;4919372;29;20025;-77
2022/05/17 04:27:43;;;;;;;1999.90;999.90;;;15.30;99.90;;;;;;4918961;29;20035;-77
2022/05/17 04:30:11;;;;;;;1999.90;999.90;;;15.40;99.90;;;;;;4918262;29;20024;-81
2022/05/17 04:32:36;;;;;;;1999.90;999.90;;;15.30;99.90;;;;;;4917815;29;20058;-77
2022/05/17 04:35:03;;;;;;;1999.90;999.90;;;15.30;99.90;;;;;;4916289;29;20131;-77
2022/05/17 04:37:29;;;;;;;1999.90;999.90;;;15.30;99.90;;;;;;4928643;29;20032;-80
2022/05/17 04:39:55;;;;;;;1999.90;999.90;;;15.30;99.90;;;;;;4920101;29;20067;-81
2022/05/17 04:42:21;;;;;;;1999.90;999.90;;;15.30;99.90;;;;;;4918974;29;20062;-77
2022/05/17 04:44:47;;;;;;;1999.90;999.90;;;15.30;99.90;;;;;;4926028;29;20028;-77
2022/05/17 04:47:13;;;;;;;1999.90;999.90;;;15.30;99.90;;;;;;4917971;29;20484;-77
2022/05/17 04:49:39;;;;;;;1999.90;999.90;;;15.30;99.90;;;;;;4924939;29;20111;-77
2022/05/17 04:52:05;;;;;;;1999.90;999.90;;;15.40;99.90;;;;;;4918499;29;20036;-82
2022/05/17 04:54:31;;;;;;;1999.90;999.90;;;15.40;99.90;;;;;;4925245;29;20044;-77
2022/05/17 04:56:57;;;;;;;1999.90;999.90;;;15.50;99.90;;;;;;4916973;29;20062;-80
2022/05/17 04:59:23;;;;;;;1999.90;999.90;;;15.50;99.90;;;;;;4927541;29;20024;-78
2022/05/17 05:01:49;;;;;;;1999.90;999.90;;;15.70;99.90;;;;;;4930158;29;20035;-78
2022/05/17 05:04:14;;;;;;;1999.90;999.90;;;15.80;99.90;;;;;;4918929;29;20052;-78
2022/05/17 05:06:40;;;;;;;1999.90;999.90;;;15.90;99.90;;;;;;4917859;29;20036;-78
2022/05/17 05:09:07;;;;;;;1999.90;999.90;;;16.00;99.90;;;;;;4917166;29;20032;-78
2022/05/17 05:11:33;;;;;;;1999.90;999.90;;;16.00;99.90;;;;;;4917332;29;20399;-79
2022/05/17 05:13:58;;;;;;;1999.90;999.90;;;16.10;99.90;;;;;;4918007;29;20016;-79
2022/05/17 05:16:27;;;;;;;1999.90;999.90;;;16.10;99.90;;;;;;4917411;29;20035;-79
2022/05/17 05:18:52;;;;;;;1999.90;999.90;;;16.10;99.90;;;;;;4920536;29;20472;-86
2022/05/17 05:21:19;;;;;;;1999.90;999.90;;;16.20;99.90;;;;;;4920335;29;20111;-79
2022/05/17 05:23:45;;;;;;;1999.90;999.90;;;16.30;99.90;;;;;;4916177;29;20100;-85
2022/05/17 05:26:13;;;;;;;1999.90;999.90;;;16.30;99.90;;;;;;4918656;29;20028;-79
2022/05/17 05:28:39;;;;;;;1999.90;999.90;;;16.40;99.90;;;;;;4919109;29;20024;-79
2022/05/17 05:31:05;;;;;;;1999.90;999.90;;;16.50;99.90;;;;;;4917382;29;20058;-80
2022/05/17 05:33:34;;;;;;;1999.90;999.90;;;16.50;99.90;;;;;;4925518;29;20499;-79
2022/05/17 05:36:01;;;;;;;1999.90;999.90;;;16.60;99.90;;;;;;4914591;29;20055;-86
2022/05/17 05:38:27;;;;;;;1999.90;999.90;;;16.60;99.90;;;;;;4918549;29;20024;-79
2022/05/17 05:40:52;;;;;;;1999.90;999.90;;;16.70;99.90;;;;;;4921597;29;20020;-79
2022/05/17 05:43:18;;;;;;;1999.90;999.90;;;16.80;99.90;;;;;;4914716;29;20035;-84
2022/05/17 05:45:44;;;;;;;1999.90;999.90;;;16.90;99.90;;;;;;4929391;29;20024;-77
2022/05/17 05:48:10;;;;;;;1999.90;999.90;;;17.00;99.90;;;;;;4924361;29;20039;-84
2022/05/17 05:50:37;;;;;;;1999.90;999.90;;;17.10;99.90;;;;;;4918905;29;20479;-77
2022/05/17 05:53:06;;;;;;;1999.90;999.90;;;17.10;99.90;;;;;;4916398;29;20080;-77
2022/05/17 05:55:33;;;;;;;1999.90;999.90;;;17.20;99.90;;;;;;4927399;29;20068;-85
2022/05/17 05:57:58;;;;;;;1999.90;999.90;;;17.30;99.90;;;;;;4925865;29;20042;-84
2022/05/17 06:00:25;;;;;;;1999.90;999.90;;;17.40;99.90;;;;;;4917682;29;20458;-76
2022/05/17 06:02:51;;;;;;;1999.90;999.90;;;17.50;99.90;;;;;;4915090;29;20399;-76
2022/05/17 06:05:18;;;;;;;1999.90;999.90;;;17.60;99.90;;;;;;4917181;29;20028;-77
2022/05/17 06:07:46;;;;;;;1999.90;999.90;;;17.70;99.90;;;;;;4914594;29;20028;-78
2022/05/17 06:10:13;;;;;;;1999.90;999.90;;;17.90;99.90;;;;;;4926828;29;20039;-84
2022/05/17 06:12:39;;;;;;;1999.90;999.90;;;18.00;99.90;;;;;;4918545;29;20028;-77
2022/05/17 06:15:06;;;;;;;1999.90;999.90;;;18.10;99.90;;;;;;4926805;29;20035;-84
2022/05/17 06:17:32;;;;;;;1999.90;999.90;;;18.20;99.90;;;;;;4917202;29;20526;-76
2022/05/17 06:19:58;;;;;;;1999.90;999.90;;;18.30;99.90;;;;;;4914095;29;20043;-76
2022/05/17 06:22:25;;;;;;;1999.90;999.90;;;18.40;99.90;;;;;;4922303;29;20110;-77
2022/05/17 06:24:52;;;;;;;1999.90;999.90;;;18.50;99.90;;;;;;4915829;29;20458;-76
2022/05/17 06:27:17;;;;;;;1999.90;999.90;;;18.70;99.90;;;;;;4911289;29;20511;-84
2022/05/17 06:29:43;;;;;;;1999.90;999.90;;;18.70;99.90;;;;;;4911743;29;20024;-83
2022/05/17 06:32:10;;;;;;;1999.90;999.90;;;18.90;99.90;;;;;;4912733;29;20044;-76
2022/05/17 06:34:36;;;;;;;1999.90;999.90;;;19.00;99.90;;;;;;4927451;29;20067;-77
2022/05/17 06:37:02;;;;;;;1999.90;999.90;;;19.10;99.90;;;;;;4919370;29;20071;-83
2022/05/17 06:39:27;;;;;;;1999.90;999.90;;;19.30;99.90;;;;;;4918816;29;20039;-77
2022/05/17 06:41:55;;;;;;;1999.90;999.90;;;19.40;99.90;;;;;;4921586;29;20016;-77
2022/05/17 06:44:21;;;;;;;1999.90;999.90;;;19.50;99.90;;;;;;4920620;29;20028;-83
2022/05/17 06:46:46;;;;;;;1999.90;999.90;;;19.60;99.90;;;;;;4915005;29;20039;-84
2022/05/17 06:49:12;;;;;;;1999.90;999.90;;;19.80;99.90;;;;;;4933155;29;20416;-84
2022/05/17 06:51:39;;;;;;;1999.90;999.90;;;19.90;99.90;;;;;;4936550;29;20034;-84
2022/05/17 06:54:05;;;;;;;1999.90;999.90;;;20.10;99.90;;;;;;4918115;29;20032;-84
2022/05/17 06:56:31;;;;;;;1999.90;999.90;;;20.10;99.90;;;;;;4918292;29;20086;-81
2022/05/17 06:58:57;;;;;;;1999.90;999.90;;;20.30;99.90;;;;;;4913691;29;20040;-80
2022/05/17 07:01:23;;;;;;;1999.90;999.90;;;20.40;99.90;;;;;;4916833;29;20032;-78
2022/05/17 07:03:53;;;;;;;1999.90;999.90;;;20.60;99.90;;;;;;4913746;29;20515;-81
2022/05/17 07:06:19;;;;;;;1999.90;999.90;;;20.80;99.90;;;;;;4915953;29;20043;-79
2022/05/17 07:08:45;;;;;;;1999.90;999.90;;;21.10;99.90;;;;;;4909781;29;20036;-76
2022/05/17 07:13:56;;;;;;;1999.90;999.90;;;21.80;99.90;;;;;;4915102;29;20043;-77
2022/05/17 07:16:22;;;;;;;1999.90;999.90;;;22.10;99.90;;;;;;4915921;29;20044;-77
2022/05/17 07:18:48;;;;;;;1999.90;999.90;;;22.40;99.90;;;;;;4913028;29;20454;-80
2022/05/17 07:21:14;;;;;;;1999.90;999.90;;;22.70;99.70;;;;;;4915969;29;20032;-81
2022/05/17 07:23:41;;;;;;;1999.90;999.90;;;22.80;99.30;;;;;;4918033;29;20063;-81
2022/05/17 07:26:08;;;;;;;1999.90;999.90;;;23.00;99.30;;;;;;4913376;29;20036;-76
2022/05/17 07:28:43;;;;;;;1999.90;999.90;;;23.10;99.20;;;;;;4915257;29;20035;-79
2022/05/17 07:31:10;;;;;;;1999.90;999.90;;;23.30;98.90;;;;;;4915212;29;20055;-78
2022/05/17 07:33:36;;;;;;;1999.90;999.90;;;23.40;98.80;;;;;;4913788;29;20039;-77
2022/05/17 07:36:03;;;;;;;1999.90;999.90;;;23.80;98.60;;;;;;4932182;29;20088;-77
2022/05/17 07:38:30;;;;;;;1999.90;999.90;;;24.40;98.10;;;;;;4913666;29;20028;-76
2022/05/17 07:41:06;;;;;;;1999.90;999.90;;;25.80;95.90;;;;;;4914672;29;20031;-80
2022/05/17 07:43:31;;;;;;;1999.90;999.90;;;25.60;95.50;;;;;;4918410;29;20542;-76
2022/05/17 07:45:57;;;;;;;1999.90;999.90;;;25.30;95.80;;;;;;4909478;29;20024;-77
2022/05/17 07:48:25;;;;;;;1999.90;999.90;;;25.20;96.00;;;;;;4911647;29;20043;-78
2022/05/17 07:50:54;;;;;;;1999.90;999.90;;;25.20;96.00;;;;;;4924111;29;20088;-79
2022/05/17 07:53:31;;;;;;;1999.90;999.90;;;25.90;96.00;;;;;;4915937;29;20035;-79
2022/05/17 07:55:56;;;;;;;1999.90;999.90;;;27.60;94.10;;;;;;4915407;29;20067;-80
2022/05/17 07:58:24;;;;;;;1999.90;999.90;;;27.50;93.80;;;;;;4905748;29;20078;-77
2022/05/17 08:00:53;;;;;;;1999.90;999.90;;;26.70;94.20;;;;;;4914880;29;20119;-78
2022/05/17 08:03:21;;;;;;;1999.90;999.90;;;26.20;94.90;;;;;;4912066;29;20032;-78
2022/05/17 08:05:47;;;;;;;1999.90;999.90;;;25.90;95.40;;;;;;4920581;29;20050;-78
2022/05/17 08:08:13;;;;;;;1999.90;999.90;;;25.90;95.70;;;;;;4912880;29;20036;-79
2022/05/17 08:10:39;;;;;;;1999.90;999.90;;;26.10;95.40;;;;;;4916259;29;20058;-80
2022/05/17 08:13:06;;;;;;;1999.90;999.90;;;25.90;95.60;;;;;;4916444;29;20142;-77
2022/05/17 08:15:33;;;;;;;1999.90;999.90;;;26.10;95.50;;;;;;4908928;29;20040;-76
2022/05/17 08:18:04;;;;;;;1999.90;999.90;;;27.60;94.00;;;;;;4911348;29;20451;-77
2022/05/17 08:20:31;;;;;;;1999.90;999.90;;;27.30;94.00;;;;;;4916444;29;20028;-81
2022/05/17 08:22:57;;;;;;;1999.90;999.90;;;27.80;93.90;;;;;;4914133;29;20043;-81
2022/05/17 08:28:08;;;;;;;1999.90;999.90;;;29.30;92.70;;;;;;4910009;29;20055;-81
2022/05/17 08:30:36;;;;;;;1999.90;999.90;;;31.60;90.90;;;;;;4914536;29;20411;-81
2022/05/17 08:33:15;;;;;;;1999.90;999.90;;;32.00;89.90;;;;;;4912390;29;20036;-80
2022/05/17 08:36:03;;;;;;;1999.90;999.90;;;32.00;89.90;;;;;;4916966;29;20032;-82
2022/05/17 08:38:36;;;;;;;1999.90;999.90;;;32.00;89.00;;;;;;4915106;29;20032;-83
2022/05/17 08:41:23;;;;;;;1999.90;999.90;;;32.10;89.80;;;;;;4912939;29;20032;-82
2022/05/17 08:43:49;;;;;;;1999.90;999.90;;;32.70;87.60;;;;;;4916404;29;20032;-81
2022/05/17 08:46:27;;;;;;;1999.90;999.90;;;32.10;88.90;;;;;;4915486;29;20024;-81
2022/05/17 08:48:58;;;;;;;1999.90;999.90;;;32.10;89.60;;;;;;4912838;29;20028;-79
2022/05/17 08:52:04;;;;;;;1999.90;999.90;;;31.60;89.10;;;;;;4915894;29;20028;-81
2022/05/17 08:54:35;;;;;;;1999.90;999.90;;;32.00;88.20;;;;;;4914439;29;20036;-81
2022/05/17 08:57:13;;;;;;;1999.90;999.90;;;33.60;87.20;;;;;;4916303;29;20500;-79
2022/05/17 08:59:41;;;;;;;1999.90;999.90;;;34.10;85.30;;;;;;4912420;29;20379;-80
2022/05/17 09:02:12;;;;;;;1999.90;999.90;;;34.30;85.50;;;;;;4908396;29;20067;-79
2022/05/17 09:04:59;;;;;;;1999.90;999.90;;;34.40;84.70;;;;;;4916756;29;20075;-78
2022/05/17 09:07:28;;;;;;;1999.90;999.90;;;34.90;83.90;;;;;;4915544;29;20039;-77
2022/05/17 09:10:01;;;;;;;1999.90;999.90;;;35.40;82.40;;;;;;4913593;29;20062;-77
2022/05/17 09:12:42;;;;;;;1999.90;999.90;;;35.20;82.50;;;;;;4906153;29;20032;-77
2022/05/17 09:15:10;;;;;;;1999.90;999.90;;;35.10;82.20;;;;;;4913312;29;20419;-77
2022/05/17 09:17:36;;;;;;;1999.90;999.90;;;34.80;82.70;;;;;;4911740;29;20045;-77
2022/05/17 09:20:04;;;;;;;1999.90;999.90;;;34.90;82.80;;;;;;4908034;29;20032;-77
2022/05/17 09:22:30;;;;;;;1999.90;999.90;;;34.00;82.30;;;;;;4905856;29;20028;-77
2022/05/17 09:25:15;;;;;;;1999.90;999.90;;;34.00;84.20;;;;;;4913575;29;20032;-77
2022/05/17 09:27:41;;;;;;;1999.90;999.90;;;35.10;82.90;;;;;;4910574;29;20043;-78
2022/05/17 09:30:12;;;;;;;1999.90;999.90;;;34.60;83.80;;;;;;4903223;29;20389;-77
2022/05/17 09:32:43;;;;;;;1999.90;999.90;;;33.10;84.30;;;;;;4913768;29;20035;-81
2022/05/17 09:35:16;;;;;;;1999.90;999.90;;;32.10;86.10;;;;;;4912632;29;20032;-78
2022/05/17 09:37:51;;;;;;;1999.90;999.90;;;31.40;86.90;;;;;;4913211;29;20089;-80
2022/05/17 09:40:29;;;;;;;1999.90;999.90;;;30.40;87.80;;;;;;4913928;29;20518;-80
2022/05/17 09:42:58;;;;;;;1999.90;999.90;;;29.70;89.40;;;;;;4913700;29;20024;-79
2022/05/17 09:45:45;;;;;;;1999.90;999.90;;;30.30;88.20;;;;;;4914777;29;20051;-81
2022/05/17 09:48:12;;;;;;;1999.90;999.90;;;30.40;88.30;;;;;;4913053;29;20028;-78
2022/05/17 09:53:57;;;;;;;1999.90;999.90;;;31.90;86.90;;;;;;4912715;29;20031;-78
2022/05/17 09:56:27;;;;;;;1999.90;999.90;;;33.30;85.50;;;;;;4907921;29;20139;-78
2022/05/17 09:58:53;;;;;;;1999.90;999.90;;;34.20;84.00;;;;;;4914468;29;20557;-78
2022/05/17 10:01:25;;;;;;;1999.90;999.90;;;34.60;82.80;;;;;;4922921;29;20115;-80
2022/05/17 10:04:12;;;;;;;1999.90;999.90;;;35.00;82.90;;;;;;4929612;29;20051;-80
2022/05/17 10:06:42;;;;;;;1999.90;999.90;;;35.50;80.30;;;;;;4920904;29;20040;-80
2022/05/17 10:09:13;;;;;;;1999.90;999.90;;;34.30;81.40;;;;;;4919875;29;20064;-82
2022/05/17 10:12:09;;;;;;;1999.90;999.90;;;33.80;81.70;;;;;;4915718;29;20039;-79
2022/05/17 10:14:47;;;;;;;1999.90;999.90;;;34.30;82.30;;;;;;4918201;29;20032;-80
2022/05/17 10:17:23;;;;;;;1999.90;999.90;;;34.30;81.10;;;;;;4919615;29;20032;-80
2022/05/17 10:20:07;;;;;;;1999.90;999.90;;;34.40;80.30;;;;;;4918286;29;20084;-80
2022/05/17 10:22:55;;;;;;;1999.90;999.90;;;33.40;81.80;;;;;;4924173;29;20028;-82
2022/05/17 10:25:41;;;;;;;1999.90;999.90;;;33.90;82.30;;;;;;4926780;29;20028;-78
2022/05/17 10:28:33;;;;;;;1999.90;999.90;;;33.60;82.10;;;;;;4926971;29;20411;-78
2022/05/17 10:31:20;;;;;;;1999.90;999.90;;;33.30;82.70;;;;;;4912542;29;20567;-81
2022/05/17 10:34:49;;;;;;;1999.90;999.90;;;33.60;83.80;;;;;;4923405;28;20514;-82
2022/05/17 10:37:21;;;;;;;1999.90;999.90;;;34.30;82.40;;;;;;4907070;28;20051;-82
2022/05/17 10:40:06;;;;;;;1999.90;999.90;;;34.50;81.30;;;;;;4918895;29;20063;-82
2022/05/17 10:42:34;;;;;;;1999.90;999.90;;;35.00;81.70;;;;;;4920627;29;20028;-83
2022/05/17 10:45:00;;;;;;;1999.90;999.90;;;34.90;81.60;;;;;;4919683;29;20035;-80
2022/05/17 10:47:46;;;;;;;1999.90;999.90;;;34.30;81.20;;;;;;4916304;29;20039;-79
2022/05/17 10:50:45;;;;;;;1999.90;999.90;;;34.00;81.80;;;;;;4911566;29;20518;-78
2022/05/17 10:53:30;;;;;;;1999.90;999.90;;;34.20;82.10;;;;;;4914119;29;20143;-77
2022/05/17 10:56:22;;;;;;;1999.90;999.90;;;34.20;81.10;;;;;;4920420;29;20485;-81
2022/05/17 10:58:57;;;;;;;;;;;33.70;81.70;;;;;;4931650;29;20081;-77
2022/05/17 11:01:32;;;;;;;1999.90;999.90;;;34.30;80.60;;;;;;4918838;29;19915;-78
2022/05/17 11:04:34;;;;;;;1999.90;999.90;;;34.20;80.60;;;;;;4914672;29;20028;-78
2022/05/17 11:07:24;;;;;;;1999.90;999.90;;;34.10;81.00;;;;;;4914162;29;20044;-80
2022/05/17 11:10:41;;;;;;;1999.90;999.90;;;33.80;81.30;;;;;;4909573;29;20032;-80
2022/05/17 11:13:31;;;;;;;1999.90;999.90;;;34.60;80.80;;;;;;4908688;29;20467;-77
2022/05/17 11:16:12;;;;;;;1999.90;999.90;;;34.90;79.80;;;;;;4916839;29;20140;-79
2022/05/17 11:18:58;;;;;;;1999.90;999.90;;;34.40;81.00;;;;;;4910017;29;20056;-77
2022/05/17 11:21:32;;;;;;;1999.90;999.90;;;34.70;81.10;;;;;;4907569;29;20048;-78
2022/05/17 11:24:35;;;;;;;1999.90;999.90;;;34.50;80.90;;;;;;4913393;29;20406;-80
2022/05/17 11:27:13;;;;;;;1999.90;999.90;;;34.20;84.60;;;;;;4916841;29;20055;-77
2022/05/17 11:30:08;;;;;;;1999.90;999.90;;;33.30;87.40;;;;;;4919037;29;20029;-78
2022/05/17 11:32:37;;;;;;;1999.90;999.90;;;32.50;90.10;;;;;;4911587;29;20083;-79
2022/05/17 11:35:24;;;;;;;1999.90;999.90;;;32.40;91.00;;;;;;4918388;29;20081;-78
2022/05/17 11:37:51;;;;;;;1999.90;999.90;;;32.00;91.00;;;;;;4905660;29;20032;-79
2022/05/17 11:40:49;;;;;;;1999.90;999.90;;;31.60;90.70;;;;;;4922651;29;20036;-75
2022/05/17 11:43:41;;;;;;;1999.90;999.90;;;31.20;91.20;;;;;;4915584;29;20051;-78
2022/05/17 11:46:28;;;;;;;1999.90;999.90;;;30.50;91.10;;;;;;4913281;29;20170;-81
2022/05/17 11:48:54;;;;;;;1999.90;999.90;;;30.40;91.40;;;;;;4915362;29;20032;-79
2022/05/17 11:51:29;;;;;;;1999.90;999.90;;;30.30;91.40;;;;;;4928402;29;20546;-80
2022/05/17 11:53:55;;;;;;;1999.90;999.90;;;30.10;91.90;;;;;;4923489;29;20032;-78
2022/05/17 11:56:24;;;;;;;1999.90;999.90;;;29.70;91.00;;;;;;4911452;29;20100;-78
2022/05/17 11:59:12;;;;;;;1999.90;999.90;;;29.70;91.10;;;;;;4910873;29;20040;-78
2022/05/17 12:01:37;;;;;;;1999.90;999.90;;;29.20;90.90;;;;;;4909084;29;20087;-79
2022/05/17 12:04:19;;;;;;;1999.90;999.90;;;29.00;91.20;;;;;;4912820;29;20024;-80
2022/05/17 12:06:51;;;;;;;1999.90;999.90;;;29.90;90.50;;;;;;4915160;29;20032;-78
2022/05/17 12:09:23;;;;;;;1999.90;999.90;;;30.00;90.20;;;;;;4913907;29;20151;-79
2022/05/17 12:12:01;;;;;;;1999.90;999.90;;;30.60;89.70;;;;;;4916893;29;20035;-80
2022/05/17 12:14:39;;;;;;;1999.90;999.90;;;30.10;89.40;;;;;;4912341;29;20043;-79
2022/05/17 12:17:20;;;;;;;1999.90;999.90;;;30.20;89.50;;;;;;4915323;29;20032;-78
2022/05/17 12:20:06;;;;;;;1999.90;999.90;;;30.10;88.80;;;;;;4908770;29;20487;-79
2022/05/17 12:22:41;;;;;;;1999.90;999.90;;;29.40;89.40;;;;;;4913039;29;20777;-79
2022/05/17 12:25:31;;;;;;;1999.90;999.90;;;28.90;90.10;;;;;;4914172;29;20142;-76
2022/05/17 12:27:59;;;;;;;1999.90;999.90;;;28.90;90.00;;;;;;4911363;29;20060;-78